Time;durP1;ratioP1;P1;durP2;ratioP2;P2;SDS_P1;SDS_P2;PMS_P1;PMS_P2;Temp;Humidity;BMP_temperature;BMP_pressure;BME280_temperature;BME280_humidity;BME280_pressure;Samples;Min_cycle;Max_cycle;Signal;HPM_P1;HPM_P2
2023/03/23 00:00:53;;;;;;;5.40;5.30;;;21.80;57.00;;;;;;5031688;28;20531;-52
2023/03/23 00:03:22;;;;;;;5.80;5.70;;;21.80;57.00;;;;;;5031894;28;20930;-54
2023/03/23 00:05:51;;;;;;;5.60;5.50;;;21.70;56.90;;;;;;5032355;28;20456;-55
2023/03/23 00:08:20;;;;;;;5.40;5.30;;;21.70;57.00;;;;;;5031578;28;20449;-53
2023/03/23 00:10:52;;;;;;;6.00;5.90;;;21.70;57.00;;;;;;5031709;28;20572;-52
2023/03/23 00:13:19;;;;;;;6.13;5.83;;;21.70;57.00;;;;;;5031996;28;20446;-52
2023/03/23 00:15:48;;;;;;;6.03;5.93;;;21.70;57.00;;;;;;5031917;28;20457;-53
2023/03/23 00:18:21;;;;;;;5.90;5.80;;;21.70;57.00;;;;;;5031539;28;20802;-53
2023/03/23 00:20:49;;;;;;;5.60;5.50;;;21.70;57.00;;;;;;5031565;28;20939;-52
2023/03/23 00:23:19;;;;;;;5.40;5.30;;;21.70;57.10;;;;;;5031847;28;20508;-52
2023/03/23 00:25:47;;;;;;;5.70;5.60;;;21.70;57.10;;;;;;5031821;28;20456;-53
2023/03/23 00:28:14;;;;;;;5.60;5.50;;;21.70;57.10;;;;;;5031392;28;20818;-51
2023/03/23 00:30:42;;;;;;;5.37;5.27;;;21.70;57.10;;;;;;5031423;28;20840;-52
2023/03/23 00:33:12;;;;;;;5.43;5.33;;;21.70;57.20;;;;;;5031787;28;20445;-51
2023/03/23 00:35:41;;;;;;;5.50;5.40;;;21.70;57.70;;;;;;5031721;28;20958;-51
2023/03/23 00:38:08;;;;;;;5.27;5.17;;;21.70;57.20;;;;;;5031127;28;20476;-51
2023/03/23 00:40:36;;;;;;;6.83;6.63;;;21.70;57.20;;;;;;5031583;28;20477;-52
2023/03/23 00:43:04;;;;;;;5.20;5.10;;;21.70;57.30;;;;;;5031535;28;20449;-51
2023/03/23 00:45:31;;;;;;;5.97;5.80;;;21.70;57.40;;;;;;5031462;28;20961;-53
2023/03/23 00:48:01;;;;;;;6.23;6.07;;;21.70;57.40;;;;;;5031162;28;20442;-52
2023/03/23 00:50:29;;;;;;;5.70;5.60;;;21.70;57.50;;;;;;5031686;28;20476;-52
2023/03/23 00:52:57;;;;;;;5.43;5.33;;;21.70;57.50;;;;;;5031501;28;20533;-54
2023/03/23 00:55:25;;;;;;;5.10;5.00;;;21.60;57.40;;;;;;5031261;28;20448;-51
2023/03/23 00:57:53;;;;;;;5.60;5.50;;;21.70;57.50;;;;;;5031538;28;20862;-54
2023/03/23 01:00:21;;;;;;;5.40;5.30;;;21.60;57.50;;;;;;5035569;28;20531;-53
2023/03/23 01:02:51;;;;;;;5.47;5.37;;;21.60;57.50;;;;;;5035535;28;20506;-53
2023/03/23 01:05:18;;;;;;;5.87;5.77;;;21.60;57.60;;;;;;5035426;28;20452;-52
2023/03/23 01:07:45;;;;;;;5.60;5.50;;;21.60;57.60;;;;;;5034907;28;20484;-52
2023/03/23 01:10:16;;;;;;;5.30;5.20;;;21.60;57.60;;;;;;5035018;28;20548;-51
2023/03/23 01:12:44;;;;;;;5.00;4.93;;;21.60;57.60;;;;;;5035148;28;20480;-53
2023/03/23 01:15:15;;;;;;;5.40;5.30;;;21.60;57.70;;;;;;5035209;28;20808;-52
2023/03/23 01:17:43;;;;;;;5.87;5.77;;;21.60;57.70;;;;;;5034839;28;20567;-51
2023/03/23 01:20:10;;;;;;;5.47;5.37;;;21.50;57.70;;;;;;5035212;28;20547;-50
2023/03/23 01:22:38;;;;;;;5.50;5.40;;;21.50;57.60;;;;;;5035071;28;20816;-53
2023/03/23 01:25:06;;;;;;;5.03;4.97;;;21.50;57.70;;;;;;5035002;28;20857;-52
2023/03/23 01:27:35;;;;;;;5.13;5.03;;;21.50;57.80;;;;;;5034847;28;20483;-52
2023/03/23 01:30:02;;;;;;;5.47;5.37;;;21.50;57.80;;;;;;5033866;28;20480;-53
2023/03/23 01:32:29;;;;;;;5.70;5.60;;;21.50;57.90;;;;;;5034608;28;20913;-55
2023/03/23 01:34:56;;;;;;;5.40;5.30;;;21.50;57.90;;;;;;5034803;28;20481;-51
2023/03/23 01:37:26;;;;;;;5.10;5.00;;;21.50;57.90;;;;;;5034612;28;20536;-53
2023/03/23 01:39:54;;;;;;;5.67;5.47;;;21.50;57.80;;;;;;5034322;28;20472;-51
2023/03/23 01:42:23;;;;;;;5.63;5.53;;;21.50;57.80;;;;;;5034735;28;20445;-53
2023/03/23 01:45:27;;;;;;;5.23;5.13;;;21.50;57.80;;;;;;5034714;28;20539;-52
2023/03/23 01:48:06;;;;;;;5.67;5.57;;;21.50;57.70;;;;;;5034215;28;20441;-54
2023/03/23 01:50:38;;;;;;;5.47;5.37;;;21.50;57.80;;;;;;5034553;28;20528;-52
2023/03/23 01:53:09;;;;;;;5.20;5.10;;;21.50;57.90;;;;;;5034611;28;20468;-53
2023/03/23 01:55:39;;;;;;;5.10;5.00;;;21.50;57.90;;;;;;5034046;28;20510;-52
2023/03/23 01:58:07;;;;;;;5.10;5.00;;;21.50;57.90;;;;;;5034006;28;20927;-53
2023/03/23 02:00:34;;;;;;;5.30;5.20;;;21.50;57.90;;;;;;5035023;28;20898;-52
2023/03/23 02:03:02;;;;;;;5.30;5.20;;;21.50;57.90;;;;;;5034476;28;20520;-53
2023/03/23 02:05:35;;;;;;;5.70;5.60;;;21.50;58.00;;;;;;5034342;28;20532;-53
2023/03/23 02:08:03;;;;;;;5.30;5.20;;;21.50;58.00;;;;;;5033837;28;20472;-53
2023/03/23 02:10:31;;;;;;;5.50;5.40;;;21.50;57.90;;;;;;5033785;28;20838;-54
2023/03/23 02:12:58;;;;;;;5.60;5.50;;;21.50;58.00;;;;;;5034187;28;20496;-54
2023/03/23 02:15:28;;;;;;;5.73;5.63;;;21.50;58.00;;;;;;5034156;28;20866;-56
2023/03/23 02:18:07;;;;;;;5.97;5.87;;;21.50;58.00;;;;;;5033562;28;20528;-57
2023/03/23 02:21:05;;;;;;;5.60;5.50;;;21.50;58.00;;;;;;5023761;28;21001;-57
2023/03/23 02:23:57;;;;;;;5.40;5.30;;;21.50;58.00;;;;;;5033989;28;20453;-56
2023/03/23 02:26:39;;;;;;;5.50;5.40;;;21.50;58.00;;;;;;5033871;28;20523;-56
2023/03/23 02:29:25;;;;;;;5.53;5.43;;;21.50;58.20;;;;;;5033327;28;20496;-57
2023/03/23 02:32:11;;;;;;;5.50;5.40;;;21.50;58.20;;;;;;5034369;28;20539;-51
2023/03/23 02:34:43;;;;;;;5.60;5.50;;;21.40;58.10;;;;;;5033721;28;20873;-51
2023/03/23 02:37:14;;;;;;;5.20;5.10;;;21.40;58.10;;;;;;5033641;28;20532;-51
2023/03/23 02:39:46;;;;;;;5.53;5.43;;;21.40;58.10;;;;;;5033215;28;20544;-54
2023/03/23 02:42:16;;;;;;;6.50;6.07;;;21.40;58.30;;;;;;5033700;28;20452;-55
2023/03/23 02:44:46;;;;;;;5.60;5.50;;;21.40;58.30;;;;;;5033599;28;20539;-51
2023/03/23 02:47:18;;;;;;;5.20;5.10;;;21.40;58.30;;;;;;5033102;28;20879;-51
2023/03/23 02:49:50;;;;;;;5.20;5.10;;;21.40;58.30;;;;;;5033385;28;20551;-54
2023/03/23 02:52:20;;;;;;;5.40;5.30;;;21.40;58.30;;;;;;5033467;28;20484;-54
2023/03/23 02:54:49;;;;;;;5.40;5.30;;;21.40;58.30;;;;;;5033502;28;20524;-53
2023/03/23 02:57:17;;;;;;;5.40;5.30;;;21.40;58.40;;;;;;5032893;28;20536;-54
2023/03/23 02:59:44;;;;;;;5.63;5.53;;;21.40;58.30;;;;;;5033106;28;21054;-54
2023/03/23 03:02:15;;;;;;;5.30;5.10;;;21.40;58.40;;;;;;5033253;28;20495;-52
2023/03/23 03:04:48;;;;;;;5.10;5.00;;;21.40;58.40;;;;;;5033324;28;20837;-55
2023/03/23 03:07:37;;;;;;;5.70;5.30;;;21.40;58.40;;;;;;5032809;28;20456;-51
2023/03/23 03:10:11;;;;;;;5.43;5.33;;;21.40;58.30;;;;;;5032993;28;20500;-53
2023/03/23 03:12:46;;;;;;;5.30;5.20;;;21.40;58.30;;;;;;5033253;28;20488;-56
2023/03/23 03:15:24;;;;;;;4.93;4.90;;;21.40;58.30;;;;;;5032924;28;20487;-56
2023/03/23 03:17:58;;;;;;;5.60;5.50;;;21.40;58.30;;;;;;5032612;28;20502;-52
2023/03/23 03:20:27;;;;;;;5.73;5.63;;;21.40;58.30;;;;;;5032233;28;20496;-55
2023/03/23 03:22:57;;;;;;;5.73;5.53;;;21.40;58.30;;;;;;5032653;28;20445;-52
2023/03/23 03:25:27;;;;;;;5.23;5.13;;;21.40;58.30;;;;;;5033052;28;20475;-51
2023/03/23 03:27:56;;;;;;;5.20;5.10;;;21.40;58.30;;;;;;5032273;28;20451;-51
2023/03/23 03:30:30;;;;;;;5.80;5.70;;;21.40;58.30;;;;;;5032671;28;20511;-51
2023/03/23 03:33:00;;;;;;;4.70;4.70;;;21.40;58.40;;;;;;5032647;28;20487;-53
2023/03/23 03:35:27;;;;;;;5.20;5.10;;;21.40;58.40;;;;;;5032624;28;21000;-58
2023/03/23 03:37:57;;;;;;;5.40;5.30;;;21.40;58.30;;;;;;5032035;28;20542;-52
2023/03/23 03:40:24;;;;;;;5.77;5.67;;;21.40;58.50;;;;;;5032375;28;20476;-53
2023/03/23 03:42:52;;;;;;;5.50;5.40;;;21.40;58.40;;;;;;5032393;28;20453;-55
2023/03/23 03:45:20;;;;;;;5.73;5.63;;;21.40;58.40;;;;;;5032213;28;20442;-52
2023/03/23 03:47:47;;;;;;;5.67;5.57;;;21.40;58.40;;;;;;5032185;28;21018;-56
2023/03/23 03:50:16;;;;;;;6.00;5.90;;;21.40;58.40;;;;;;5032157;28;20548;-56
2023/03/23 03:52:43;;;;;;;5.87;5.77;;;21.40;58.40;;;;;;5032170;28;20484;-53
2023/03/23 03:55:11;;;;;;;5.53;5.43;;;21.40;58.40;;;;;;5032005;28;20523;-55
2023/03/23 03:57:39;;;;;;;5.33;5.23;;;21.40;58.30;;;;;;5032010;28;20524;-52
2023/03/23 04:00:14;;;;;;;5.30;5.20;;;21.40;58.40;;;;;;5032000;28;21169;-54
2023/03/23 04:02:42;;;;;;;5.30;5.20;;;21.40;58.40;;;;;;5032112;28;20452;-52
2023/03/23 04:05:09;;;;;;;5.50;5.40;;;21.40;58.30;;;;;;5031844;28;20539;-54
2023/03/23 04:07:39;;;;;;;5.60;5.50;;;21.40;58.40;;;;;;5031833;28;20448;-52
2023/03/23 04:10:07;;;;;;;5.60;5.40;;;21.40;58.40;;;;;;5032267;28;20512;-51
2023/03/23 04:12:36;;;;;;;5.20;5.10;;;21.40;58.40;;;;;;5031681;28;20477;-51
2023/03/23 04:15:04;;;;;;;5.00;4.90;;;21.40;58.30;;;;;;5031975;28;21006;-53
2023/03/23 04:17:31;;;;;;;5.30;5.20;;;21.40;58.20;;;;;;5032090;28;20523;-54
2023/03/23 04:19:59;;;;;;;5.23;5.13;;;21.40;58.10;;;;;;5031830;28;20500;-53
2023/03/23 04:22:32;;;;;;;5.27;5.17;;;21.40;58.10;;;;;;5031491;28;20445;-51
2023/03/23 04:25:00;;;;;;;5.00;4.90;;;21.40;58.20;;;;;;5031925;28;20437;-52
2023/03/23 04:27:28;;;;;;;5.53;5.10;;;21.40;58.20;;;;;;5031623;28;20464;-52
2023/03/23 04:29:57;;;;;;;5.27;5.17;;;21.40;58.30;;;;;;5031806;28;20832;-54
2023/03/23 04:32:28;;;;;;;5.40;5.30;;;21.40;58.40;;;;;;5031483;28;20763;-53
2023/03/23 04:34:57;;;;;;;5.33;5.23;;;21.40;58.40;;;;;;5031777;28;20880;-53
2023/03/23 04:37:28;;;;;;;5.20;5.10;;;21.40;58.50;;;;;;5031519;28;20481;-55
2023/03/23 04:40:00;;;;;;;5.40;5.30;;;21.40;58.50;;;;;;5031878;28;20461;-49
2023/03/23 04:42:27;;;;;;;5.10;5.00;;;21.40;58.90;;;;;;5031386;28;20815;-52
2023/03/23 04:44:55;;;;;;;5.00;4.90;;;21.40;58.30;;;;;;5031502;28;20536;-56
2023/03/23 04:47:24;;;;;;;5.20;5.10;;;21.40;58.40;;;;;;5031451;28;20821;-51
2023/03/23 04:49:51;;;;;;;5.63;5.43;;;21.40;58.90;;;;;;5031496;28;20902;-52
2023/03/23 04:52:20;;;;;;;5.73;5.53;;;21.40;58.30;;;;;;5031288;28;20492;-51
2023/03/23 04:54:47;;;;;;;5.73;5.53;;;21.40;58.40;;;;;;5031407;28;20535;-56
2023/03/23 04:57:15;;;;;;;5.50;5.30;;;21.40;58.40;;;;;;5031655;28;20445;-52
2023/03/23 04:59:43;;;;;;;5.10;5.00;;;21.40;58.40;;;;;;5031344;28;20849;-53
2023/03/23 05:02:10;;;;;;;4.90;4.90;;;21.50;58.50;;;;;;5031225;28;20536;-52
2023/03/23 05:04:40;;;;;;;5.83;5.63;;;21.50;58.50;;;;;;5031325;28;20449;-51
2023/03/23 05:07:07;;;;;;;5.50;5.40;;;21.50;58.40;;;;;;5031247;28;20449;-53
2023/03/23 05:09:35;;;;;;;5.90;5.80;;;21.50;58.40;;;;;;5031311;28;20555;-53
2023/03/23 05:12:05;;;;;;;5.93;5.83;;;21.50;58.50;;;;;;5030515;28;20487;-52
2023/03/23 05:14:32;;;;;;;5.73;5.63;;;21.50;58.40;;;;;;5031488;28;20866;-52
2023/03/23 05:16:59;;;;;;;5.90;5.80;;;21.50;58.50;;;;;;5031290;28;20878;-54
2023/03/23 05:19:25;;;;;;;6.20;6.10;;;21.50;58.30;;;;;;5031162;28;20503;-54
2023/03/23 05:21:54;;;;;;;5.93;5.83;;;21.50;58.30;;;;;;5031045;28;20958;-53
2023/03/23 05:24:21;;;;;;;6.60;6.43;;;21.50;58.30;;;;;;5031276;28;20532;-51
2023/03/23 05:26:52;;;;;;;6.70;6.60;;;21.40;58.30;;;;;;5031203;28;20483;-53
2023/03/23 05:29:19;;;;;;;6.00;5.90;;;21.50;58.30;;;;;;5030957;28;20465;-55
2023/03/23 05:31:45;;;;;;;6.07;5.97;;;21.50;58.30;;;;;;5030820;28;20881;-52
2023/03/23 05:34:12;;;;;;;6.00;5.83;;;21.50;58.20;;;;;;5031101;28;20512;-51
2023/03/23 05:36:39;;;;;;;6.63;6.53;;;21.50;58.20;;;;;;5031237;28;20452;-52
2023/03/23 05:39:09;;;;;;;6.07;5.57;;;21.50;58.20;;;;;;5030888;28;20500;-53
2023/03/23 05:41:37;;;;;;;6.10;6.00;;;21.50;58.20;;;;;;5030909;28;20449;-54
2023/03/23 05:44:04;;;;;;;7.50;7.20;;;21.50;58.70;;;;;;5031918;28;20448;-54
2023/03/23 05:46:32;;;;;;;6.60;6.40;;;21.50;58.90;;;;;;5034622;28;20536;-53
2023/03/23 05:48:59;;;;;;;7.10;6.50;;;21.50;60.10;;;;;;5034428;28;20563;-55
2023/03/23 05:51:27;;;;;;;7.40;7.10;;;21.60;61.80;;;;;;5034406;28;20830;-51
2023/03/23 05:53:54;;;;;;;7.70;7.20;;;21.60;63.40;;;;;;5034605;28;20491;-55
2023/03/23 05:56:23;;;;;;;7.97;7.40;;;21.60;64.30;;;;;;5034678;28;20795;-51
2023/03/23 05:58:50;;;;;;;8.93;8.30;;;21.60;64.00;;;;;;5031889;28;20473;-52
2023/03/23 06:01:16;;;;;;;9.63;9.10;;;21.60;64.70;;;;;;5032821;28;20540;-52
2023/03/23 06:03:44;;;;;;;8.77;8.10;;;21.50;63.20;;;;;;5033580;28;20516;-52
2023/03/23 06:06:12;;;;;;;11.80;10.37;;;21.50;63.00;;;;;;5034344;28;20452;-51
2023/03/23 06:08:39;;;;;;;9.00;8.60;;;21.50;62.00;;;;;;5033901;28;20469;-51
2023/03/23 06:11:06;;;;;;;8.10;7.80;;;21.40;60.90;;;;;;5034040;28;20476;-51
2023/03/23 06:13:34;;;;;;;8.50;7.97;;;21.40;60.40;;;;;;5034015;28;20488;-51
2023/03/23 06:16:01;;;;;;;8.00;7.70;;;21.30;60.00;;;;;;5034119;28;20477;-52
2023/03/23 06:18:33;;;;;;;9.43;8.90;;;21.30;59.60;;;;;;5033914;28;20495;-52
2023/03/23 06:21:00;;;;;;;8.00;7.70;;;21.20;59.40;;;;;;5034144;28;20900;-51
2023/03/23 06:23:27;;;;;;;8.70;8.30;;;21.20;59.20;;;;;;5033936;28;20459;-51
2023/03/23 06:25:56;;;;;;;7.70;7.50;;;21.20;59.00;;;;;;5033799;28;20539;-54
2023/03/23 06:28:24;;;;;;;9.17;8.70;;;21.20;58.90;;;;;;5033514;28;20939;-51
2023/03/23 06:30:52;;;;;;;8.07;7.80;;;21.20;58.70;;;;;;5033870;28;20884;-51
2023/03/23 06:33:19;;;;;;;7.80;7.60;;;21.20;58.30;;;;;;5033705;28;20571;-51
2023/03/23 06:35:46;;;;;;;8.43;8.13;;;21.10;58.30;;;;;;5033669;28;20877;-51
2023/03/23 06:38:13;;;;;;;8.60;8.03;;;21.10;58.10;;;;;;5033357;28;20507;-51
2023/03/23 06:40:41;;;;;;;8.33;8.03;;;21.10;58.00;;;;;;5033612;28;20891;-51
2023/03/23 06:43:08;;;;;;;8.03;7.83;;;21.10;57.90;;;;;;5033580;28;20449;-51
2023/03/23 06:45:35;;;;;;;7.63;7.43;;;21.10;57.80;;;;;;5033809;28;20532;-51
2023/03/23 06:48:03;;;;;;;8.40;8.00;;;21.00;57.60;;;;;;5033198;28;20507;-50
2023/03/23 06:50:30;;;;;;;8.13;7.70;;;21.00;57.60;;;;;;5033359;28;21002;-52
2023/03/23 06:52:57;;;;;;;8.40;8.20;;;21.00;57.50;;;;;;5033265;28;20484;-51
2023/03/23 06:55:24;;;;;;;8.20;8.00;;;21.00;57.40;;;;;;5032538;28;20532;-51
2023/03/23 06:57:51;;;;;;;8.07;7.77;;;20.90;57.20;;;;;;5033027;28;20461;-51
2023/03/23 07:00:18;;;;;;;7.80;7.60;;;20.90;57.20;;;;;;5033039;28;20512;-53
2023/03/23 07:02:45;;;;;;;9.80;9.50;;;20.90;57.10;;;;;;5033107;28;20523;-51
2023/03/23 07:05:14;;;;;;;9.07;8.73;;;20.90;57.10;;;;;;5033142;28;20480;-51
2023/03/23 07:07:41;;;;;;;8.07;7.87;;;20.80;56.90;;;;;;5032962;28;20837;-51
2023/03/23 07:10:10;;;;;;;8.73;8.43;;;20.80;56.90;;;;;;5033009;28;20552;-51
2023/03/23 07:12:37;;;;;;;9.27;8.77;;;20.90;56.90;;;;;;5032942;28;20901;-52
2023/03/23 07:15:04;;;;;;;8.13;7.93;;;20.80;56.80;;;;;;5032864;28;20484;-51
2023/03/23 07:17:32;;;;;;;8.27;7.90;;;20.80;56.70;;;;;;5032794;28;20874;-51
2023/03/23 07:19:59;;;;;;;9.03;8.77;;;20.80;56.70;;;;;;5032700;28;20472;-51
2023/03/23 07:22:27;;;;;;;9.13;8.83;;;20.80;56.70;;;;;;5032992;28;20480;-51
2023/03/23 07:24:54;;;;;;;8.30;8.03;;;20.80;56.70;;;;;;5032782;28;20537;-52
2023/03/23 07:27:21;;;;;;;8.07;7.87;;;20.80;56.70;;;;;;5032543;28;20454;-54
2023/03/23 07:29:48;;;;;;;8.93;8.63;;;20.70;56.60;;;;;;5032520;28;20966;-51
2023/03/23 07:32:15;;;;;;;7.83;7.63;;;20.70;56.60;;;;;;5032637;28;20531;-51
2023/03/23 07:34:42;;;;;;;8.23;8.03;;;20.70;56.60;;;;;;5032644;28;20539;-51
2023/03/23 07:37:09;;;;;;;9.13;8.73;;;20.70;56.70;;;;;;5032359;28;20479;-53
2023/03/23 07:39:37;;;;;;;8.20;8.00;;;20.60;56.70;;;;;;5032414;28;20560;-51
2023/03/23 07:42:07;;;;;;;8.10;7.90;;;20.70;56.70;;;;;;5032391;28;20627;-52
2023/03/23 07:44:34;;;;;;;8.17;7.77;;;20.60;56.60;;;;;;5032404;28;20481;-52
2023/03/23 07:47:01;;;;;;;8.30;7.90;;;20.70;56.60;;;;;;5032205;28;20982;-50
2023/03/23 07:49:28;;;;;;;8.77;8.57;;;20.60;56.50;;;;;;5032102;28;20881;-52
2023/03/23 07:51:55;;;;;;;8.00;7.70;;;20.60;56.50;;;;;;5032487;28;20456;-51
2023/03/23 07:54:22;;;;;;;8.20;8.00;;;20.60;56.50;;;;;;5032119;28;21010;-51
2023/03/23 07:56:50;;;;;;;8.20;7.80;;;20.60;56.50;;;;;;5032144;28;20483;-51
2023/03/23 07:59:17;;;;;;;8.70;8.30;;;20.50;56.40;;;;;;5032254;28;20511;-50
2023/03/23 08:01:44;;;;;;;8.60;8.23;;;20.50;56.30;;;;;;5032013;28;20481;-51
2023/03/23 08:04:13;;;;;;;8.90;8.50;;;20.50;56.20;;;;;;5032062;28;20528;-50
2023/03/23 08:06:40;;;;;;;8.67;8.47;;;20.50;56.20;;;;;;5031753;28;20800;-52
2023/03/23 08:09:10;;;;;;;7.73;7.60;;;20.40;56.10;;;;;;5031674;28;20475;-50
2023/03/23 08:11:37;;;;;;;8.07;7.87;;;20.40;56.10;;;;;;5031885;28;20450;-51
2023/03/23 08:14:05;;;;;;;8.30;8.10;;;20.40;56.10;;;;;;5031673;28;20483;-50
2023/03/23 08:16:32;;;;;;;8.43;8.20;;;20.40;55.90;;;;;;5031878;28;20541;-51
2023/03/23 08:19:02;;;;;;;8.33;8.13;;;20.40;56.60;;;;;;5031498;28;20527;-51
2023/03/23 08:21:29;;;;;;;8.30;8.00;;;20.40;56.10;;;;;;5031865;28;20827;-53
2023/03/23 08:23:56;;;;;;;8.80;8.53;;;20.30;56.00;;;;;;5031869;28;20439;-50
2023/03/23 08:26:23;;;;;;;8.47;8.27;;;20.30;55.90;;;;;;5031704;28;20487;-52
2023/03/23 08:28:50;;;;;;;8.70;8.40;;;20.30;55.90;;;;;;5031427;28;20543;-54
2023/03/23 08:31:18;;;;;;;8.90;8.27;;;20.30;55.80;;;;;;5031619;28;20489;-52
2023/03/23 08:33:45;;;;;;;8.83;8.33;;;20.30;55.80;;;;;;5031688;28;20917;-51
2023/03/23 08:36:12;;;;;;;8.07;7.77;;;20.20;55.70;;;;;;5031672;28;20988;-51
2023/03/23 08:38:39;;;;;;;8.23;8.03;;;20.20;55.70;;;;;;5031435;28;20755;-51
2023/03/23 08:41:07;;;;;;;8.70;8.50;;;20.30;55.80;;;;;;5031520;28;20495;-52
2023/03/23 08:43:35;;;;;;;8.40;8.20;;;20.30;55.80;;;;;;5031810;28;20449;-51
2023/03/23 08:46:06;;;;;;;8.93;8.70;;;20.30;55.80;;;;;;5031440;28;20463;-52
2023/03/23 08:48:35;;;;;;;9.17;8.70;;;20.20;55.70;;;;;;5031302;28;21090;-50
2023/03/23 08:51:02;;;;;;;8.50;8.27;;;20.20;55.70;;;;;;5031467;28;20453;-51
2023/03/23 08:53:30;;;;;;;9.00;8.80;;;20.20;55.70;;;;;;5031462;28;20523;-51
2023/03/23 08:56:03;;;;;;;8.50;8.20;;;20.10;55.60;;;;;;5031499;28;20532;-50
2023/03/23 08:58:30;;;;;;;8.60;8.20;;;20.10;55.70;;;;;;5031155;28;20527;-52
2023/03/23 09:00:57;;;;;;;7.90;7.70;;;20.10;55.80;;;;;;5031426;28;20524;-51
2023/03/23 09:03:26;;;;;;;8.10;7.90;;;20.10;55.80;;;;;;5031359;28;20480;-51
2023/03/23 09:05:54;;;;;;;8.70;8.50;;;20.10;55.80;;;;;;5031417;28;20794;-51
2023/03/23 09:08:21;;;;;;;8.60;8.40;;;20.10;55.80;;;;;;5030951;28;20537;-56
2023/03/23 09:10:49;;;;;;;8.47;8.17;;;20.10;55.70;;;;;;5031308;28;20528;-52
2023/03/23 09:13:16;;;;;;;8.70;8.50;;;20.10;55.70;;;;;;5031143;28;20538;-50
2023/03/23 09:15:43;;;;;;;8.50;8.30;;;20.10;55.80;;;;;;5031272;28;20528;-51
2023/03/23 09:18:10;;;;;;;8.90;8.43;;;20.10;55.80;;;;;;5030915;28;20539;-52
2023/03/23 09:20:37;;;;;;;8.10;7.90;;;20.00;55.70;;;;;;5034598;28;20456;-51
2023/03/23 09:23:06;;;;;;;8.13;7.93;;;20.00;55.80;;;;;;5034989;28;20452;-52
2023/03/23 09:25:33;;;;;;;8.03;7.83;;;20.10;55.80;;;;;;5034999;28;20538;-50
2023/03/23 09:28:00;;;;;;;8.77;8.47;;;20.10;55.80;;;;;;5034741;28;20994;-51
2023/03/23 09:30:30;;;;;;;8.00;7.80;;;20.00;55.80;;;;;;5034950;28;20480;-51
2023/03/23 09:33:00;;;;;;;8.40;8.10;;;20.00;55.80;;;;;;5034853;28;20448;-51
2023/03/23 09:35:28;;;;;;;8.53;8.27;;;20.00;55.80;;;;;;5034787;28;20626;-51
2023/03/23 09:37:56;;;;;;;8.83;8.43;;;20.00;55.80;;;;;;5034791;28;20992;-51
2023/03/23 09:40:30;;;;;;;8.30;7.87;;;20.00;55.80;;;;;;5034685;28;20499;-54
2023/03/23 09:43:33;;;;;;;8.47;8.17;;;19.90;55.80;;;;;;5034743;28;20445;-52
2023/03/23 09:46:12;;;;;;;8.30;8.00;;;19.90;55.60;;;;;;5003150;28;20468;-51
2023/03/23 09:48:50;;;;;;;8.53;8.23;;;19.90;55.50;;;;;;5034347;28;20503;-51
2023/03/23 09:51:30;;;;;;;9.33;8.57;;;19.90;55.60;;;;;;5034791;28;20528;-51
2023/03/23 09:54:02;;;;;;;8.47;8.07;;;19.90;55.50;;;;;;5034386;28;20481;-51
2023/03/23 09:56:33;;;;;;;9.00;8.70;;;19.90;55.50;;;;;;5034409;28;20939;-53
2023/03/23 09:59:06;;;;;;;8.40;7.93;;;19.90;55.50;;;;;;5033934;28;20477;-51
2023/03/23 10:01:37;;;;;;;8.17;7.73;;;19.80;55.30;;;;;;5034417;28;20502;-51
2023/03/23 10:04:11;;;;;;;8.47;8.27;;;19.80;55.40;;;;;;5034449;28;21030;-50
2023/03/23 10:06:38;;;;;;;8.33;8.10;;;19.80;55.40;;;;;;5034386;28;20794;-54
2023/03/23 10:09:06;;;;;;;8.43;8.03;;;19.80;55.50;;;;;;5033851;28;20564;-54
2023/03/23 10:11:44;;;;;;;8.23;8.03;;;19.80;55.50;;;;;;5034100;28;20540;-53
2023/03/23 10:14:24;;;;;;;9.43;9.03;;;19.80;55.60;;;;;;5034013;28;20575;-51
2023/03/23 10:17:01;;;;;;;8.10;7.90;;;19.70;56.00;;;;;;5034025;28;20531;-51
2023/03/23 10:19:33;;;;;;;8.07;7.87;;;19.70;56.70;;;;;;5033962;28;20564;-50
2023/03/23 10:22:06;;;;;;;7.50;7.40;;;19.60;57.40;;;;;;5034001;28;20449;-52
2023/03/23 10:24:36;;;;;;;8.27;8.00;;;19.60;57.90;;;;;;5034243;28;20446;-51
2023/03/23 10:27:14;;;;;;;8.20;8.00;;;19.60;58.40;;;;;;5033816;28;20445;-51
2023/03/23 10:29:46;;;;;;;7.73;7.60;;;19.60;58.70;;;;;;5033491;28;20974;-50
2023/03/23 10:32:15;;;;;;;7.80;7.60;;;19.60;59.10;;;;;;5033824;28;20441;-53
2023/03/23 10:34:46;;;;;;;8.43;8.13;;;19.60;59.10;;;;;;5033670;28;20856;-51
2023/03/23 10:37:18;;;;;;;8.10;7.80;;;19.50;59.30;;;;;;5033499;28;21010;-53
2023/03/23 10:39:51;;;;;;;8.13;7.93;;;19.50;59.50;;;;;;5033590;28;20548;-50
2023/03/23 10:42:29;;;;;;;7.90;7.73;;;19.50;59.70;;;;;;5033616;28;20456;-51
2023/03/23 10:44:58;;;;;;;7.70;7.60;;;19.50;59.80;;;;;;5033689;28;20476;-50
2023/03/23 10:47:26;;;;;;;8.00;7.80;;;19.50;59.80;;;;;;5033345;28;20492;-51
2023/03/23 10:49:57;;;;;;;8.00;7.80;;;19.50;60.00;;;;;;5033345;28;20523;-51
2023/03/23 10:52:31;;;;;;;7.53;7.43;;;19.50;60.10;;;;;;5033455;28;20545;-54
2023/03/23 10:55:05;;;;;;;7.70;7.50;;;19.40;60.10;;;;;;5033453;28;20517;-50
2023/03/23 10:57:36;;;;;;;8.00;7.83;;;19.50;60.30;;;;;;5033440;28;20537;-54
2023/03/23 11:00:08;;;;;;;7.47;7.27;;;19.40;60.40;;;;;;5033159;28;20580;-54
2023/03/23 11:02:42;;;;;;;8.00;7.80;;;19.40;60.50;;;;;;5033314;28;20463;-52
2023/03/23 11:05:19;;;;;;;8.37;8.00;;;19.50;60.60;;;;;;5033363;28;20476;-51
2023/03/23 11:07:52;;;;;;;8.23;8.03;;;19.40;60.60;;;;;;5032976;28;20520;-52
2023/03/23 11:10:23;;;;;;;8.43;8.23;;;19.40;60.60;;;;;;5033127;28;20552;-55
2023/03/23 11:12:53;;;;;;;8.40;8.20;;;19.50;60.80;;;;;;5033249;28;20460;-52
2023/03/23 11:15:28;;;;;;;8.83;8.53;;;19.50;60.70;;;;;;5032957;28;20484;-52
2023/03/23 11:17:58;;;;;;;9.00;8.80;;;19.50;60.50;;;;;;5033122;28;20445;-51
2023/03/23 11:20:26;;;;;;;9.00;8.80;;;19.50;60.70;;;;;;5033058;28;20568;-54
2023/03/23 11:22:53;;;;;;;8.63;8.43;;;19.50;60.70;;;;;;5032991;28;20449;-51
2023/03/23 11:25:20;;;;;;;9.50;9.10;;;19.50;60.80;;;;;;5032810;28;20532;-52
2023/03/23 11:27:48;;;;;;;9.03;8.70;;;19.50;60.80;;;;;;5032544;28;20461;-52
2023/03/23 11:30:27;;;;;;;8.43;8.23;;;19.50;60.70;;;;;;5032510;28;20557;-53
2023/03/23 11:32:56;;;;;;;8.50;8.37;;;19.50;60.70;;;;;;5032722;28;20448;-52
2023/03/23 11:35:26;;;;;;;9.00;8.60;;;19.50;60.60;;;;;;5032562;28;20538;-52
2023/03/23 11:37:56;;;;;;;8.77;8.57;;;19.50;60.60;;;;;;5032491;28;20473;-50
2023/03/23 11:40:25;;;;;;;9.47;9.10;;;19.60;60.50;;;;;;5032387;28;20894;-51
2023/03/23 11:43:00;;;;;;;8.70;8.40;;;19.60;60.50;;;;;;5031905;28;20449;-51
2023/03/23 11:45:35;;;;;;;8.50;8.20;;;19.60;60.70;;;;;;5032840;28;20444;-52
2023/03/23 11:48:15;;;;;;;7.87;7.67;;;19.60;60.70;;;;;;5032166;28;20456;-52
2023/03/23 11:50:50;;;;;;;8.07;7.87;;;19.60;60.80;;;;;;5032421;28;20535;-51
2023/03/23 11:53:28;;;;;;;7.60;7.30;;;19.60;60.70;;;;;;5032642;28;20515;-52
2023/03/23 11:56:04;;;;;;;7.70;7.60;;;19.60;60.80;;;;;;5032132;28;20587;-52
2023/03/23 11:58:32;;;;;;;8.03;7.73;;;19.60;60.90;;;;;;5031859;28;21041;-52
2023/03/23 12:01:07;;;;;;;8.00;7.70;;;19.60;61.10;;;;;;5032241;28;20540;-52
2023/03/23 12:03:49;;;;;;;7.70;7.50;;;19.60;61.30;;;;;;5032192;28;20548;-51
2023/03/23 12:06:26;;;;;;;7.77;7.57;;;19.60;61.60;;;;;;5032126;28;20457;-51
2023/03/23 12:09:07;;;;;;;7.80;7.60;;;19.60;61.60;;;;;;5031829;28;20465;-51
2023/03/23 12:11:41;;;;;;;7.93;7.63;;;19.60;61.60;;;;;;5031898;28;20449;-50
2023/03/23 12:14:17;;;;;;;8.33;8.03;;;19.60;62.00;;;;;;5031938;28;20536;-51
2023/03/23 12:16:59;;;;;;;7.73;7.53;;;19.60;61.90;;;;;;5031961;28;20955;-51
2023/03/23 12:19:35;;;;;;;7.87;7.67;;;19.60;62.50;;;;;;5031822;28;20464;-52
2023/03/23 12:22:13;;;;;;;7.97;7.77;;;19.60;62.50;;;;;;5031919;28;20528;-52
2023/03/23 12:24:50;;;;;;;8.57;8.30;;;19.60;62.80;;;;;;5031980;28;20441;-51
2023/03/23 12:27:30;;;;;;;8.03;7.83;;;19.60;62.90;;;;;;5031613;28;20441;-51
2023/03/23 12:30:12;;;;;;;7.80;7.60;;;19.60;62.80;;;;;;5032073;28;20555;-54
2023/03/23 12:33:09;;;;;;;8.30;8.10;;;19.60;62.90;;;;;;5031731;28;20532;-51
2023/03/23 12:35:48;;;;;;;8.10;7.77;;;19.60;63.50;;;;;;5031589;28;20481;-51
2023/03/23 12:38:48;;;;;;;7.97;7.77;;;19.60;63.40;;;;;;5031796;28;20449;-53
2023/03/23 12:41:18;;;;;;;8.53;8.03;;;19.60;63.60;;;;;;5031728;28;20456;-52
2023/03/23 12:43:52;;;;;;;8.20;7.70;;;19.60;64.00;;;;;;5031663;28;20527;-52
2023/03/23 12:46:50;;;;;;;8.03;7.83;;;19.60;63.80;;;;;;5031601;28;20506;-52
2023/03/23 12:49:22;;;;;;;8.00;7.80;;;19.60;64.10;;;;;;5006186;28;20473;-51
2023/03/23 12:51:55;;;;;;;8.80;8.57;;;19.60;63.90;;;;;;5031699;28;20483;-53
2023/03/23 12:54:28;;;;;;;8.30;8.10;;;19.60;64.10;;;;;;5032935;28;20567;-51
2023/03/23 12:57:00;;;;;;;7.87;7.67;;;19.60;64.70;;;;;;5035757;28;20449;-53
2023/03/23 12:59:35;;;;;;;8.27;8.07;;;19.60;65.70;;;;;;5035415;28;20713;-51
2023/03/23 13:02:10;;;;;;;8.33;8.10;;;19.60;66.20;;;;;;5035689;28;20922;-51
2023/03/23 13:04:44;;;;;;;7.50;7.40;;;19.50;66.60;;;;;;5035610;28;20820;-51